createdAt,value
2022-09-25T00:01:26.603Z,99460.31
2022-09-25T00:05:29.682Z,99465.66
2022-09-25T00:09:32.885Z,99459.50
2022-09-25T00:13:37.414Z,99463.06
2022-09-25T00:17:40.364Z,99470.09
2022-09-25T00:21:43.747Z,99465.72
2022-09-25T00:25:54.295Z,99464.84
2022-09-25T00:29:59.705Z,99463.09
2022-09-25T00:34:05.299Z,99460.47
2022-09-25T00:38:08.461Z,99456.97
2022-09-25T00:42:14.121Z,99452.56
2022-09-25T00:46:22.332Z,99450.84
2022-09-25T00:50:35.119Z,99441.97
2022-09-25T00:54:42.429Z,99452.53
2022-09-25T00:58:45.665Z,99449.84
2022-09-25T01:02:54.367Z,99456.06
2022-09-25T01:06:57.520Z,99462.22
2022-09-25T01:11:00.552Z,99468.34
2022-09-25T01:15:03.730Z,99456.91
2022-09-25T01:19:22.830Z,99445.44
2022-09-25T01:23:48.834Z,99435.78
2022-09-25T01:28:21.015Z,99444.59
2022-09-25T01:32:34.060Z,99443.75
2022-09-25T01:36:43.308Z,99437.59
2022-09-25T01:40:55.321Z,99445.53
2022-09-25T01:45:03.118Z,99442.88
2022-09-25T01:49:13.316Z,99434.03
2022-09-25T01:53:22.651Z,99438.44
2022-09-25T01:57:32.881Z,99450.75
2022-09-25T02:01:41.511Z,99444.59
2022-09-25T02:05:49.783Z,99444.63
2022-09-25T02:09:56.498Z,99435.81
2022-09-25T02:14:06.669Z,99445.53
2022-09-25T02:18:30.633Z,99453.47
2022-09-25T02:22:35.924Z,99451.69
2022-09-25T02:26:39.230Z,99446.41
2022-09-25T02:30:43.708Z,99444.66
2022-09-25T02:34:47.045Z,99441.97
2022-09-25T02:38:54.973Z,99449.03
2022-09-25T02:43:06.648Z,99443.75
2022-09-25T02:47:20.128Z,99441.13
2022-09-25T02:51:35.492Z,99440.25
2022-09-25T02:55:45.168Z,99424.41
2022-09-25T02:59:53.971Z,99419.13
2022-09-25T03:04:00.236Z,99427.03
2022-09-25T03:08:20.541Z,99434.06
2022-09-25T03:12:25.098Z,99441.97
2022-09-25T03:16:34.996Z,99464.03
2022-09-25T03:20:38.378Z,99468.47
2022-09-25T03:24:41.516Z,99465.03
2022-09-25T03:28:47.987Z,99452.75
2022-09-25T03:32:51.010Z,99433.47
2022-09-25T03:36:54.253Z,99428.28
2022-09-25T03:40:57.330Z,99411.59
2022-09-25T03:45:02.329Z,99404.56
2022-09-25T03:49:05.752Z,99409.84
2022-09-25T03:53:09.291Z,99416.91
2022-09-25T03:57:14.982Z,99421.34
2022-09-25T04:01:20.123Z,99419.56
2022-09-25T04:05:23.138Z,99414.31
2022-09-25T04:09:26.299Z,99424.03
2022-09-25T04:13:31.530Z,99421.41
2022-09-25T04:17:35.871Z,99414.41
2022-09-25T04:21:39.056Z,99427.66
2022-09-25T04:25:42.068Z,99423.34
2022-09-25T04:29:45.068Z,99419.84
2022-09-25T04:33:49.646Z,99416.38
2022-09-25T04:37:52.714Z,99421.69
2022-09-25T04:41:55.696Z,99415.56
2022-09-25T04:46:02.879Z,99420.00
2022-09-25T04:50:08.675Z,99427.06
2022-09-25T04:54:11.892Z,99428.81
2022-09-25T04:58:15.219Z,99432.34
2022-09-25T05:02:18.399Z,99434.09
2022-09-25T05:06:23.574Z,99440.25
2022-09-25T05:10:29.178Z,99430.59
2022-09-25T05:14:32.375Z,99440.31
2022-09-25T05:18:35.589Z,99454.41
2022-09-25T05:22:39.947Z,99448.25
2022-09-25T05:26:43.098Z,99457.03
2022-09-25T05:30:46.101Z,99457.00
2022-09-25T05:34:49.110Z,99465.81
2022-09-25T05:38:54.073Z,99458.72
2022-09-25T05:42:58.345Z,99463.13
2022-09-25T05:47:01.944Z,99456.94
2022-09-25T05:51:05.702Z,99467.47
2022-09-25T05:55:11.159Z,99474.53
2022-09-25T05:59:14.362Z,99484.13
2022-09-25T06:03:18.397Z,99481.41
2022-09-25T06:07:21.822Z,99462.84
2022-09-25T06:11:27.973Z,99462.81
2022-09-25T06:15:37.522Z,99453.91
2022-09-25T06:19:40.645Z,99445.03
2022-09-25T06:23:44.968Z,99443.22
2022-09-25T06:27:50.140Z,99451.09
2022-09-25T06:31:53.421Z,99458.88
2022-09-25T06:35:56.399Z,99461.44
2022-09-25T06:39:59.388Z,99459.63
2022-09-25T06:44:03.891Z,99452.47
2022-09-25T06:48:08.919Z,99458.56
2022-09-25T06:52:12.480Z,99468.13
2022-09-25T06:56:15.471Z,99467.97
2022-09-25T07:00:20.293Z,99459.03
2022-09-25T07:04:23.244Z,99446.59
2022-09-25T07:08:26.364Z,99447.38
2022-09-25T07:12:29.552Z,99444.66
2022-09-25T07:16:34.711Z,99441.97
2022-09-25T07:20:37.928Z,99448.91
2022-09-25T07:24:40.914Z,99443.63
2022-09-25T07:28:45.722Z,99432.13
2022-09-25T07:32:50.075Z,99447.09
2022-09-25T07:36:55.017Z,99432.88
2022-09-25T07:40:58.111Z,99417.00
2022-09-25T07:45:01.181Z,99425.81
2022-09-25T07:49:05.590Z,99427.50
2022-09-25T07:53:08.620Z,99427.31
2022-09-25T07:57:13.216Z,99430.72
2022-09-25T08:01:16.343Z,99421.78
2022-09-25T08:05:20.765Z,99435.84
2022-09-25T08:09:23.820Z,99452.63
2022-09-25T08:13:27.040Z,99467.53
2022-09-25T08:17:31.438Z,99459.44
2022-09-25T08:21:36.698Z,99450.59
2022-09-25T08:25:39.825Z,99448.75
2022-09-25T08:29:42.786Z,99454.88
2022-09-25T08:33:47.027Z,99460.88
2022-09-25T08:37:51.616Z,99462.50
2022-09-25T08:41:56.416Z,99454.50
2022-09-25T08:46:18.825Z,99442.88
2022-09-25T08:50:24.458Z,99444.50
2022-09-25T08:54:32.840Z,99453.25
2022-09-25T08:58:42.720Z,99469.97
2022-09-25T09:02:49.175Z,99462.78
2022-09-25T09:07:21.959Z,99455.66
2022-09-25T09:11:25.745Z,99467.97
2022-09-25T09:15:36.707Z,99456.41
2022-09-25T09:19:39.739Z,99452.78
2022-09-25T09:23:52.696Z,99450.91
2022-09-25T09:28:19.245Z,99442.00
2022-09-25T09:32:38.907Z,99428.69
2022-09-25T09:36:50.956Z,99432.97
2022-09-25T09:41:10.126Z,99422.22
2022-09-25T09:45:21.041Z,99429.19
2022-09-25T09:49:36.093Z,99425.50
2022-09-25T09:53:43.881Z,99423.59
2022-09-25T09:57:51.941Z,99429.72
2022-09-25T10:02:02.378Z,99418.22
2022-09-25T10:06:10.924Z,99427.94
2022-09-25T10:10:15.623Z,99425.22
2022-09-25T10:14:22.617Z,99426.06
2022-09-25T10:18:32.528Z,99430.50
2022-09-25T10:22:40.219Z,99428.72
2022-09-25T10:26:43.440Z,99414.66
2022-09-25T10:30:47.915Z,99426.19
2022-09-25T10:34:54.832Z,99429.59
2022-09-25T10:39:18.027Z,99426.84
2022-09-25T10:43:24.047Z,99418.88
2022-09-25T10:47:49.884Z,99412.69
2022-09-25T10:52:05.494Z,99409.03
2022-09-25T10:56:12.637Z,99415.19
2022-09-25T11:00:22.501Z,99400.16
2022-09-25T11:04:29.137Z,99390.38
2022-09-25T11:08:37.979Z,99382.41
2022-09-25T11:12:45.612Z,99381.50
2022-09-25T11:16:51.464Z,99379.72
2022-09-25T11:21:03.033Z,99355.78
2022-09-25T11:25:15.848Z,99357.63
2022-09-25T11:29:25.535Z,99358.56
2022-09-25T11:33:42.286Z,99365.72
2022-09-25T11:37:53.574Z,99362.09
2022-09-25T11:42:03.452Z,99374.28
2022-09-25T11:46:19.031Z,99380.34
2022-09-25T11:50:33.505Z,99376.63
2022-09-25T11:54:47.929Z,99375.66
2022-09-25T11:59:08.656Z,99369.47
2022-09-25T12:03:26.973Z,99375.69
2022-09-25T12:07:44.034Z,99370.38
2022-09-25T12:11:54.774Z,99356.22
2022-09-25T12:16:09.747Z,99355.28
2022-09-25T12:20:24.603Z,99355.19
2022-09-25T12:24:40.150Z,99363.91
2022-09-25T12:28:56.454Z,99374.44
2022-09-25T12:33:12.709Z,99361.28
2022-09-25T12:37:28.609Z,99349.09
2022-09-25T12:41:36.891Z,99330.66
2022-09-25T12:45:44.866Z,99323.56
2022-09-25T12:49:56.632Z,99316.63
2022-09-25T12:54:03.254Z,99316.50
2022-09-25T12:58:18.344Z,99332.28
2022-09-25T13:02:29.870Z,99314.34
2022-09-25T13:06:42.505Z,99327.59
2022-09-25T13:10:51.395Z,99328.47
2022-09-25T13:14:59.300Z,99316.94
2022-09-25T13:19:13.925Z,99309.69
2022-09-25T13:23:28.633Z,99318.31
2022-09-25T13:27:43.629Z,99303.19
2022-09-25T13:31:47.674Z,99297.88
2022-09-25T13:36:02.666Z,99295.94
2022-09-25T13:40:35.686Z,99285.84
2022-09-25T13:45:09.730Z,99279.41
2022-09-25T13:49:34.618Z,99281.03
2022-09-25T13:53:56.519Z,99282.81
2022-09-25T13:58:04.363Z,99295.16
2022-09-25T14:02:38.424Z,99290.91
2022-09-25T14:06:43.123Z,99282.16
2022-09-25T14:10:48.149Z,99284.81
2022-09-25T14:14:59.569Z,99279.63
2022-09-25T14:19:04.476Z,99269.88
2022-09-25T14:23:14.543Z,99255.81
2022-09-25T14:27:24.135Z,99265.66
2022-09-25T14:31:43.479Z,99262.97
2022-09-25T14:35:53.784Z,99256.03
2022-09-25T14:40:05.436Z,99257.97
2022-09-25T14:44:23.655Z,99245.69
2022-09-25T14:48:32.728Z,99248.41
2022-09-25T14:52:37.831Z,99234.28
2022-09-25T14:56:41.024Z,99232.63
2022-09-25T15:00:49.206Z,99237.13
2022-09-25T15:04:58.092Z,99238.88
2022-09-25T15:09:02.701Z,99246.94
2022-09-25T15:13:15.960Z,99239.94
2022-09-25T15:17:24.951Z,99237.38
2022-09-25T15:21:31.701Z,99234.66
2022-09-25T15:25:39.509Z,99235.47
2022-09-25T15:29:46.473Z,99238.22
2022-09-25T15:34:03.736Z,99237.25
2022-09-25T15:38:13.523Z,99240.84
2022-09-25T15:42:16.768Z,99229.34
2022-09-25T15:46:35.579Z,99223.22
2022-09-25T15:50:43.698Z,99222.38
2022-09-25T15:54:49.174Z,99213.66
2022-09-25T15:58:56.044Z,99225.22
2022-09-25T16:03:19.930Z,99214.59
2022-09-25T16:07:29.366Z,99223.66
2022-09-25T16:11:33.970Z,99216.69
2022-09-25T16:15:46.087Z,99229.97
2022-09-25T16:19:59.682Z,99230.00
2022-09-25T16:24:07.480Z,99227.34
2022-09-25T16:28:19.499Z,99230.78
2022-09-25T16:32:24.494Z,99227.25
2022-09-25T16:36:37.346Z,99225.34
2022-09-25T16:40:40.623Z,99220.22
2022-09-25T16:44:47.311Z,99221.09
2022-09-25T16:49:00.585Z,99218.56
2022-09-25T16:53:04.838Z,99211.56
2022-09-25T16:57:08.189Z,99214.22
2022-09-25T17:01:13.195Z,99215.94
2022-09-25T17:05:19.557Z,99214.97
2022-09-25T17:09:22.550Z,99223.78
2022-09-25T17:13:30.792Z,99221.13
2022-09-25T17:17:35.164Z,99215.91
2022-09-25T17:21:38.367Z,99218.56
2022-09-25T17:25:44.932Z,99222.03
2022-09-25T17:29:48.226Z,99225.63
2022-09-25T17:33:52.824Z,99224.78
2022-09-25T17:37:55.989Z,99231.97
2022-09-25T17:41:59.024Z,99217.00
2022-09-25T17:46:02.392Z,99217.97
2022-09-25T17:50:07.914Z,99219.88
2022-09-25T17:54:12.743Z,99218.13
2022-09-25T17:58:16.063Z,99214.66
2022-09-25T18:02:19.125Z,99215.69
2022-09-25T18:06:24.199Z,99206.22
2022-09-25T18:10:29.047Z,99211.50
2022-09-25T18:14:34.140Z,99204.53
2022-09-25T18:18:50.979Z,99215.22
2022-09-25T18:22:55.359Z,99211.75
2022-09-25T18:26:59.991Z,99228.63
2022-09-25T18:31:03.392Z,99226.00
2022-09-25T18:35:08.741Z,99216.25
2022-09-25T18:39:17.502Z,99224.25
2022-09-25T18:43:23.032Z,99224.19
2022-09-25T18:47:26.101Z,99222.34
2022-09-25T18:51:29.094Z,99234.72
2022-09-25T18:55:33.493Z,99223.19
2022-09-25T18:59:36.664Z,99217.88
2022-09-25T19:03:41.092Z,99214.41
2022-09-25T19:07:44.189Z,99202.97
2022-09-25T19:11:48.515Z,99202.97
2022-09-25T19:15:51.773Z,99202.06
2022-09-25T19:19:54.808Z,99192.34
2022-09-25T19:23:57.820Z,99185.28
2022-09-25T19:28:02.892Z,99192.41
2022-09-25T19:32:07.465Z,99196.09
2022-09-25T19:36:15.291Z,99197.91
2022-09-25T19:40:36.336Z,99194.31
2022-09-25T19:44:41.337Z,99193.38
2022-09-25T19:48:44.867Z,99197.72
2022-09-25T19:52:51.134Z,99189.78
2022-09-25T19:56:54.478Z,99176.50
2022-09-25T20:01:00.580Z,99169.38
2022-09-25T20:05:13.287Z,99169.28
2022-09-25T20:09:22.168Z,99180.78
2022-09-25T20:13:25.374Z,99171.03
2022-09-25T20:17:29.803Z,99170.06
2022-09-25T20:21:35.079Z,99170.00
2022-09-25T20:25:38.409Z,99157.66
2022-09-25T20:29:41.618Z,99160.34
2022-09-25T20:33:46.176Z,99150.66
2022-09-25T20:37:49.652Z,99148.06
2022-09-25T20:41:52.863Z,99147.28
2022-09-25T20:46:04.080Z,99154.28
2022-09-25T20:50:09.433Z,99144.59
2022-09-25T20:54:13.576Z,99139.28
2022-09-25T20:58:16.774Z,99141.09
2022-09-25T21:02:19.906Z,99137.63
2022-09-25T21:06:26.802Z,99141.09
2022-09-25T21:10:30.000Z,99142.91
2022-09-25T21:14:33.632Z,99134.94
2022-09-25T21:18:37.175Z,99133.16
2022-09-25T21:22:42.432Z,99137.53
2022-09-25T21:26:46.254Z,99132.31
2022-09-25T21:30:49.685Z,99132.38
2022-09-25T21:34:53.003Z,99139.47
2022-09-25T21:38:58.870Z,99134.19
2022-09-25T21:43:02.000Z,99137.72
2022-09-25T21:47:05.092Z,99134.97
2022-09-25T21:51:09.322Z,99134.97
2022-09-25T21:55:14.094Z,99128.75
2022-09-25T21:59:17.275Z,99128.75
2022-09-25T22:03:20.755Z,99127.91
2022-09-25T22:07:23.790Z,99125.34
2022-09-25T22:11:29.251Z,99124.47
2022-09-25T22:15:32.194Z,99119.19
2022-09-25T22:19:35.181Z,99124.44
2022-09-25T22:23:38.379Z,99118.25
2022-09-25T22:27:42.986Z,99120.03
2022-09-25T22:31:45.949Z,99118.25
2022-09-25T22:35:49.336Z,99118.25
2022-09-25T22:39:52.312Z,99116.41
2022-09-25T22:43:58.576Z,99119.97
2022-09-25T22:48:03.936Z,99112.81
2022-09-25T22:52:07.120Z,99110.22
2022-09-25T22:56:12.994Z,99104.03
2022-09-25T23:00:17.610Z,99107.50
2022-09-25T23:04:23.332Z,99111.09
2022-09-25T23:08:26.384Z,99115.63
2022-09-25T23:12:30.857Z,99105.88
2022-09-25T23:16:36.043Z,99107.63
2022-09-25T23:20:39.059Z,99110.31
2022-09-25T23:24:42.038Z,99109.44
2022-09-25T23:28:45.025Z,99108.53
2022-09-25T23:32:49.457Z,99097.06
2022-09-25T23:36:52.637Z,99106.72
2022-09-25T23:40:55.656Z,99105.94
2022-09-25T23:44:58.838Z,99104.22
2022-09-25T23:49:04.205Z,99100.66
2022-09-25T23:53:07.132Z,99097.09
2022-09-25T23:57:10.177Z,99086.47
